Time;durP1;ratioP1;P1;durP2;ratioP2;P2;SDS_P1;SDS_P2;PMS_P1;PMS_P2;Temp;Humidity;BMP_temperature;BMP_pressure;BME280_temperature;BME280_humidity;BME280_pressure;Samples;Min_cycle;Max_cycle;Signal;HPM_P1;HPM_P2
2022/02/27 00:01:40;;;;;;;18.23;7.30;;;1.10;86.60;;;;;;6196128;23;20193;-86
2022/02/27 00:04:09;;;;;;;15.10;6.37;;;1.10;87.80;;;;;;6170918;23;20222;-86
2022/02/27 00:06:37;;;;;;;14.63;6.83;;;1.10;87.10;;;;;;6187281;23;20182;-86
2022/02/27 00:09:07;;;;;;;17.33;6.93;;;1.20;86.60;;;;;;6197142;23;20205;-87
2022/02/27 00:11:35;;;;;;;18.17;6.90;;;1.30;86.60;;;;;;6173776;23;20182;-87
2022/02/27 00:14:14;;;;;;;23.03;7.60;;;1.40;86.70;;;;;;6188146;23;20264;-86
2022/02/27 00:17:00;;;;;;;24.37;9.17;;;1.30;85.90;;;;;;6204462;23;20208;-86
2022/02/27 00:28:05;;;;;;;23.30;10.50;;;0.90;86.40;;;;;;6201232;23;20250;-87
2022/02/27 00:31:24;;;;;;;28.20;9.97;;;0.70;87.40;;;;;;6187805;23;20209;-86
2022/02/27 00:33:56;;;;;;;22.90;10.07;;;0.60;88.70;;;;;;6202823;23;20210;-86
2022/02/27 00:42:18;;;;;;;19.63;9.23;;;0.70;89.30;;;;;;6203091;23;20201;-87
2022/02/27 00:44:53;;;;;;;14.70;7.30;;;0.60;89.50;;;;;;6203846;23;20210;-86
2022/02/27 00:50:12;;;;;;;12.63;6.77;;;0.50;89.90;;;;;;6173904;23;20209;-87
2022/02/27 00:52:41;;;;;;;14.63;6.60;;;0.50;89.70;;;;;;6176944;23;20189;-87
2022/02/27 00:55:11;;;;;;;14.80;6.30;;;0.50;89.50;;;;;;6200764;23;20202;-87
2022/02/27 00:57:49;;;;;;;10.60;6.00;;;0.50;89.60;;;;;;6178057;23;20181;-87
2022/02/27 01:00:17;;;;;;;16.30;6.93;;;0.60;90.00;;;;;;6175263;23;20201;-88
2022/02/27 01:05:36;;;;;;;12.27;6.13;;;0.60;88.90;;;;;;6182405;23;20208;-88
2022/02/27 01:08:06;;;;;;;12.83;6.47;;;0.60;89.20;;;;;;6201174;23;20169;-87
2022/02/27 01:10:39;;;;;;;16.63;6.43;;;0.40;89.30;;;;;;6168524;23;20194;-87
2022/02/27 01:13:08;;;;;;;13.70;7.03;;;0.40;90.10;;;;;;6197699;23;20671;-87
2022/02/27 01:15:38;;;;;;;15.87;6.60;;;0.40;90.10;;;;;;6150939;23;20199;-87
2022/02/27 01:18:09;;;;;;;13.77;6.47;;;0.40;90.20;;;;;;6184242;23;20213;-86
2022/02/27 01:20:38;;;;;;;14.27;6.40;;;0.30;90.50;;;;;;6200083;23;20199;-87
2022/02/27 01:23:07;;;;;;;13.47;6.40;;;0.30;90.50;;;;;;6199132;23;20185;-87
2022/02/27 01:29:06;;;;;;;17.33;6.50;;;0.30;90.60;;;;;;6192466;23;20224;-88
2022/02/27 01:31:33;;;;;;;14.37;6.07;;;0.30;90.70;;;;;;6200819;23;20213;-87
2022/02/27 01:40:10;;;;;;;14.57;5.83;;;0.70;90.40;;;;;;6058711;23;20587;-87
2022/02/27 01:42:40;;;;;;;15.80;5.37;;;0.70;90.00;;;;;;6145208;23;20184;-87
2022/02/27 01:54:03;;;;;;;13.77;5.93;;;0.40;90.30;;;;;;6029543;23;20212;-88
2022/02/27 02:00:42;;;;;;;13.60;6.97;;;0.30;90.80;;;;;;5965993;24;20263;-88
2022/02/27 02:06:25;;;;;;;15.00;6.20;;;0.30;90.90;;;;;;6108196;23;20241;-87
2022/02/27 02:09:33;;;;;;;13.90;5.77;;;0.20;91.00;;;;;;6079198;23;20183;-88
2022/02/27 02:12:01;;;;;;;13.47;5.63;;;0.20;91.20;;;;;;6116063;23;20176;-87
2022/02/27 02:14:28;;;;;;;10.87;5.90;;;0.20;91.40;;;;;;6112384;23;20212;-87
2022/02/27 02:43:27;;;;;;;10.83;5.50;;;0.10;91.40;;;;;;6085551;23;20230;-87
2022/02/27 02:46:03;;;;;;;13.57;5.90;;;0.10;91.40;;;;;;6138915;23;20184;-87
2022/02/27 02:48:30;;;;;;;11.13;5.17;;;0.10;91.70;;;;;;6138275;23;20268;-87
2022/02/27 02:57:11;;;;;;;11.87;5.53;;;0.00;91.50;;;;;;6128774;23;20314;-88
2022/02/27 02:59:50;;;;;;;14.37;5.83;;;0.00;91.90;;;;;;6187810;23;20214;-88
2022/02/27 03:02:18;;;;;;;13.87;5.80;;;0.00;91.90;;;;;;6199873;23;20174;-89
2022/02/27 03:05:26;;;;;;;11.70;5.30;;;0.00;92.20;;;;;;6173243;23;20207;-88
2022/02/27 03:08:14;;;;;;;10.20;5.20;;;0.00;92.00;;;;;;6145355;23;20197;-88
2022/02/27 03:10:49;;;;;;;10.03;4.90;;;-0.10;92.10;;;;;;6198149;23;20190;-87
2022/02/27 03:13:38;;;;;;;13.87;5.20;;;-0.10;92.40;;;;;;6199708;23;20593;-87
2022/02/27 03:16:07;;;;;;;11.97;5.10;;;-0.10;92.60;;;;;;6151648;23;20232;-88
2022/02/27 03:18:45;;;;;;;9.80;4.87;;;-0.10;92.60;;;;;;6200989;23;20213;-87
2022/02/27 03:25:15;;;;;;;11.80;4.93;;;-0.20;93.00;;;;;;6137140;23;20215;-87
2022/02/27 03:30:41;;;;;;;10.40;4.57;;;-0.40;93.90;;;;;;6062506;23;20220;-88
2022/02/27 03:33:09;;;;;;;10.60;4.43;;;-0.40;93.90;;;;;;6169102;23;20178;-88
2022/02/27 03:35:38;;;;;;;9.50;4.57;;;-0.30;94.00;;;;;;6175222;23;20194;-88
2022/02/27 03:38:06;;;;;;;10.83;4.93;;;-0.50;93.90;;;;;;6202400;23;20179;-88
2022/02/27 03:47:10;;;;;;;10.40;4.57;;;-0.50;93.90;;;;;;6065897;23;20190;-89
2022/02/27 03:49:53;;;;;;;14.73;4.90;;;-0.50;94.10;;;;;;6138625;23;20210;-87
2022/02/27 03:53:04;;;;;;;11.37;4.83;;;-0.50;94.00;;;;;;6138724;23;20191;-88
2022/02/27 03:55:45;;;;;;;11.33;4.23;;;-0.50;93.90;;;;;;6113457;23;20209;-87
2022/02/27 03:58:14;;;;;;;10.37;5.13;;;-0.50;94.30;;;;;;6184340;23;20204;-87
2022/02/27 04:00:42;;;;;;;11.20;4.73;;;-0.50;94.20;;;;;;6201141;23;20208;-87
2022/02/27 04:11:35;;;;;;;11.93;5.43;;;-0.50;94.10;;;;;;6150116;23;20598;-87
2022/02/27 04:24:06;;;;;;;10.73;5.27;;;-0.60;94.90;;;;;;6168535;23;20225;-88
2022/02/27 04:26:36;;;;;;;10.90;4.50;;;-0.60;94.80;;;;;;6187888;23;20172;-87
2022/02/27 04:29:03;;;;;;;9.97;4.63;;;-0.60;94.70;;;;;;6173772;23;20294;-87
2022/02/27 04:31:55;;;;;;;12.53;5.20;;;-0.60;94.80;;;;;;6199813;23;20171;-89
2022/02/27 04:34:24;;;;;;;8.97;4.93;;;-0.50;94.80;;;;;;6169570;23;20213;-87
2022/02/27 04:37:34;;;;;;;12.23;5.10;;;-0.60;94.70;;;;;;6198872;23;20179;-87
2022/02/27 04:43:09;;;;;;;14.43;4.63;;;-0.50;94.30;;;;;;6199253;23;20170;-87
2022/02/27 04:45:45;;;;;;;14.50;4.90;;;-0.40;93.90;;;;;;6198946;23;20179;-87
2022/02/27 04:48:13;;;;;;;12.43;4.57;;;-0.40;93.90;;;;;;6173018;23;20284;-87
2022/02/27 04:50:40;;;;;;;9.70;4.60;;;-0.40;93.90;;;;;;6198858;23;20209;-87
2022/02/27 04:53:08;;;;;;;14.50;4.70;;;-0.50;93.90;;;;;;6147488;23;20183;-87
2022/02/27 04:55:37;;;;;;;9.70;4.20;;;-0.60;93.90;;;;;;6200542;23;20196;-88
2022/02/27 04:58:05;;;;;;;10.97;4.53;;;-0.80;94.20;;;;;;6174699;23;20176;-88
2022/02/27 05:00:33;;;;;;;12.33;4.97;;;-0.80;94.60;;;;;;6200030;23;20175;-87
2022/02/27 05:03:00;;;;;;;10.00;4.73;;;-0.80;94.90;;;;;;6197897;23;20170;-87
2022/02/27 05:05:28;;;;;;;8.93;4.70;;;-0.90;94.70;;;;;;6173447;23;20209;-87
2022/02/27 05:07:55;;;;;;;12.37;5.03;;;-0.80;95.30;;;;;;6199789;23;20182;-87
2022/02/27 05:10:23;;;;;;;10.77;5.00;;;-0.80;94.70;;;;;;6200039;23;20240;-87
2022/02/27 05:12:53;;;;;;;10.23;4.77;;;-0.80;95.00;;;;;;6177231;23;20226;-88
2022/02/27 05:15:20;;;;;;;8.47;4.90;;;-0.80;94.80;;;;;;6134856;23;20208;-88
2022/02/27 05:17:49;;;;;;;9.63;4.83;;;-0.80;95.50;;;;;;6202915;23;20188;-88
2022/02/27 05:20:17;;;;;;;10.40;5.13;;;-0.70;95.00;;;;;;6201420;23;20214;-88
2022/02/27 05:25:47;;;;;;;11.97;4.90;;;-0.50;93.90;;;;;;6160653;23;20212;-87
2022/02/27 05:31:06;;;;;;;9.93;4.80;;;-0.60;93.90;;;;;;6201140;23;20230;-87
2022/02/27 05:33:45;;;;;;;14.10;4.70;;;-0.60;93.90;;;;;;6182828;23;20271;-89
2022/02/27 05:36:22;;;;;;;9.03;5.30;;;-0.70;93.90;;;;;;6187263;23;20199;-88
2022/02/27 05:38:50;;;;;;;8.77;4.77;;;-0.90;94.60;;;;;;6203301;23;20206;-89
2022/02/27 05:41:18;;;;;;;10.30;5.13;;;-0.90;95.10;;;;;;6203602;23;20231;-88
2022/02/27 05:47:00;;;;;;;10.87;4.87;;;-0.70;95.00;;;;;;6200274;23;20170;-89
2022/02/27 05:49:27;;;;;;;7.10;4.27;;;-0.60;94.70;;;;;;6200352;23;20240;-88
2022/02/27 05:51:57;;;;;;;9.60;5.10;;;-0.60;94.30;;;;;;6176294;23;20184;-88
2022/02/27 05:55:13;;;;;;;13.53;4.97;;;-0.50;93.90;;;;;;6157166;23;20215;-88
2022/02/27 05:57:40;;;;;;;11.57;4.87;;;-0.60;93.90;;;;;;6202694;23;20166;-88
2022/02/27 06:00:34;;;;;;;12.63;5.37;;;-0.70;94.50;;;;;;6199459;23;20266;-87
2022/02/27 06:03:04;;;;;;;7.93;5.13;;;-0.70;94.60;;;;;;6174446;23;20871;-87
2022/02/27 06:05:32;;;;;;;7.90;4.70;;;-0.70;94.70;;;;;;6173826;23;20202;-88
2022/02/27 06:07:59;;;;;;;9.80;5.27;;;-0.70;94.60;;;;;;6176553;23;20171;-87
2022/02/27 06:10:28;;;;;;;12.00;5.53;;;-0.80;95.00;;;;;;6114473;23;20221;-88
2022/02/27 06:13:35;;;;;;;12.13;5.53;;;-0.80;95.40;;;;;;6178110;23;20745;-87
2022/02/27 06:16:04;;;;;;;9.03;5.23;;;-0.70;95.20;;;;;;6170385;23;20297;-88
2022/02/27 06:18:31;;;;;;;7.70;4.57;;;-0.60;94.50;;;;;;6201012;23;20207;-87
2022/02/27 06:21:14;;;;;;;9.80;4.83;;;-0.50;93.90;;;;;;6177413;23;20190;-88
2022/02/27 06:23:42;;;;;;;8.40;4.87;;;-0.60;93.90;;;;;;6175537;23;20207;-87
2022/02/27 06:26:10;;;;;;;10.30;5.00;;;-0.60;94.20;;;;;;6174619;23;20174;-88
2022/02/27 06:29:08;;;;;;;10.80;5.40;;;-0.60;94.20;;;;;;6184677;23;20263;-88
2022/02/27 06:31:38;;;;;;;10.57;5.23;;;-0.60;93.90;;;;;;6203175;23;20236;-89
2022/02/27 06:35:03;;;;;;;11.17;5.37;;;-0.80;94.30;;;;;;6173347;23;20209;-88
2022/02/27 06:37:31;;;;;;;11.93;5.70;;;-0.60;94.80;;;;;;6191211;23;20189;-87
2022/02/27 06:40:03;;;;;;;11.57;5.40;;;-0.40;94.50;;;;;;6172555;23;20211;-87
2022/02/27 06:42:37;;;;;;;10.13;5.47;;;-0.20;94.20;;;;;;6174902;23;20180;-87
2022/02/27 06:45:50;;;;;;;11.07;5.40;;;0.10;94.00;;;;;;6150587;23;20230;-87
2022/02/27 06:51:05;;;;;;;9.27;5.83;;;0.10;93.30;;;;;;6173771;23;20177;-88
2022/02/27 06:53:33;;;;;;;9.57;5.70;;;0.00;93.70;;;;;;6196732;23;20213;-87
2022/02/27 06:56:08;;;;;;;12.13;5.97;;;-0.10;94.00;;;;;;6200120;23;20248;-87
2022/02/27 06:58:58;;;;;;;11.80;5.97;;;-0.10;94.00;;;;;;6174793;23;20217;-87
2022/02/27 07:01:38;;;;;;;11.33;6.10;;;0.00;94.00;;;;;;6193797;23;20178;-87
2022/02/27 07:07:36;;;;;;;12.43;6.07;;;0.10;94.00;;;;;;6195689;23;20197;-87
2022/02/27 07:12:47;;;;;;;12.20;6.10;;;0.30;93.70;;;;;;6195564;23;20239;-87
2022/02/27 07:15:18;;;;;;;14.27;7.10;;;0.30;93.60;;;;;;6199307;23;20213;-87
2022/02/27 07:31:31;;;;;;;12.03;7.17;;;0.60;93.20;;;;;;6104423;23;20179;-88
2022/02/27 07:34:02;;;;;;;13.70;7.10;;;0.70;93.40;;;;;;6140743;23;20638;-87
2022/02/27 07:36:33;;;;;;;12.30;7.37;;;0.80;93.00;;;;;;6199451;23;20185;-87
2022/02/27 07:41:55;;;;;;;12.87;6.97;;;1.30;92.30;;;;;;6179911;23;20171;-87
2022/02/27 07:44:45;;;;;;;15.73;7.03;;;1.60;91.70;;;;;;6129483;23;20211;-87
2022/02/27 07:47:13;;;;;;;10.87;7.13;;;1.80;91.30;;;;;;6192121;23;20206;-87
2022/02/27 07:49:44;;;;;;;11.97;7.33;;;2.00;90.50;;;;;;6195940;23;20209;-90
2022/02/27 07:52:12;;;;;;;11.73;6.83;;;2.30;90.00;;;;;;6170461;23;20171;-89
2022/02/27 07:54:42;;;;;;;10.93;6.63;;;2.50;87.40;;;;;;6143678;23;20643;-89
2022/02/27 07:57:10;;;;;;;14.50;7.10;;;2.70;87.50;;;;;;6171190;23;20229;-89
2022/02/27 07:59:37;;;;;;;10.63;6.27;;;2.90;86.10;;;;;;6194079;23;20203;-89
2022/02/27 08:04:46;;;;;;;10.90;6.67;;;3.40;81.80;;;;;;6192133;23;20230;-90
2022/02/27 08:07:13;;;;;;;9.53;6.67;;;3.50;80.30;;;;;;6195238;23;20201;-88
2022/02/27 08:10:27;;;;;;;12.87;6.63;;;3.60;80.20;;;;;;6195408;23;20246;-88
2022/02/27 08:19:41;;;;;;;13.27;6.37;;;3.90;77.90;;;;;;6196627;23;20158;-87
2022/02/27 08:22:26;;;;;;;9.87;6.77;;;3.90;78.10;;;;;;6200083;23;20535;-86
2022/02/27 08:24:59;;;;;;;11.30;6.80;;;3.60;78.50;;;;;;6164434;23;20218;-88
2022/02/27 08:28:19;;;;;;;14.13;6.57;;;3.60;79.40;;;;;;6201555;23;20610;-89
2022/02/27 08:31:03;;;;;;;10.17;6.33;;;3.60;79.70;;;;;;6199613;23;20194;-89
2022/02/27 08:33:43;;;;;;;;;;;;;;;;;;;;;
2022/02/27 08:43:05;;;;;;;8.50;5.70;;;3.90;79.50;;;;;;6032844;23;20175;-87
2022/02/27 08:45:33;;;;;;;8.10;6.10;;;4.10;70.10;;;;;;6094753;23;20204;-88
2022/02/27 08:48:00;;;;;;;9.27;5.43;;;4.20;68.90;;;;;;6134025;23;20186;-86
2022/02/27 08:50:28;;;;;;;9.13;5.10;;;4.20;68.90;;;;;;6173822;23;20207;-86
2022/02/27 08:52:55;;;;;;;8.03;5.37;;;4.40;69.10;;;;;;6171690;23;20181;-87
2022/02/27 08:55:23;;;;;;;7.87;5.30;;;4.90;57.70;;;;;;6167595;23;20277;-85
2022/02/27 08:57:51;;;;;;;7.70;4.93;;;5.40;54.00;;;;;;6195283;23;20186;-86
2022/02/27 09:00:19;;;;;;;6.57;4.73;;;6.00;45.10;;;;;;6170977;23;20210;-88
2022/02/27 09:02:51;;;;;;;5.80;4.07;;;6.60;44.00;;;;;;6197625;23;20226;-87
2022/02/27 09:05:18;;;;;;;7.43;4.53;;;6.50;39.30;;;;;;6192309;23;20792;-90
2022/02/27 09:07:46;;;;;;;6.57;4.70;;;6.70;38.30;;;;;;6173148;23;20205;-88
2022/02/27 09:13:24;;;;;;;6.90;4.65;;;7.70;33.10;;;;;;6199090;23;20179;-87
2022/02/27 09:16:07;;;;;;;4.75;3.78;;;7.50;32.90;;;;;;6202270;23;20198;-88
2022/02/27 09:18:55;;;;;;;6.63;3.90;;;8.00;30.50;;;;;;6201508;23;20174;-87
2022/02/27 09:21:22;;;;;;;6.10;4.05;;;8.30;28.00;;;;;;6176915;23;20179;-87
2022/02/27 09:23:56;;;;;;;7.80;3.65;;;8.40;25.40;;;;;;6200944;23;20638;-87
2022/02/27 09:26:24;;;;;;;6.22;3.90;;;8.40;24.00;;;;;;6200721;23;20202;-87
2022/02/27 09:28:51;;;;;;;5.90;3.50;;;7.60;27.40;;;;;;6201875;23;20202;-87
2022/02/27 09:31:23;;;;;;;6.20;3.60;;;8.10;26.10;;;;;;6202465;23;20171;-87
2022/02/27 09:33:50;;;;;;;4.05;3.53;;;8.80;24.20;;;;;;6200661;23;20183;-86
2022/02/27 09:36:47;;;;;;;6.10;3.55;;;9.20;24.50;;;;;;6202280;23;20490;-87
2022/02/27 09:39:15;;;;;;;4.10;3.25;;;9.40;22.80;;;;;;6178040;23;20209;-88
2022/02/27 10:28:03;;;;;;;5.55;4.80;;;9.80;21.00;;;;;;6141329;23;20176;-87
2022/02/27 10:30:51;;;;;;;6.13;4.70;;;9.20;21.90;;;;;;6193584;23;20293;-87
2022/02/27 10:33:23;;;;;;;5.82;4.53;;;9.50;20.60;;;;;;6201125;23;20186;-89
2022/02/27 10:36:22;;;;;;;6.32;4.72;;;10.00;18.20;;;;;;6202067;23;20159;-87
2022/02/27 10:49:26;;;;;;;6.80;5.07;;;8.40;23.80;;;;;;6110457;23;20192;-88
2022/02/27 10:52:19;;;;;;;7.47;4.95;;;8.40;23.80;;;;;;6167411;23;20556;-88
2022/02/27 10:54:48;;;;;;;7.18;4.97;;;8.00;26.00;;;;;;6118897;23;20211;-87
2022/02/27 10:58:21;;;;;;;7.05;5.05;;;9.00;24.30;;;;;;6175593;23;20234;-88
2022/02/27 11:01:39;;;;;;;7.07;4.90;;;10.50;19.40;;;;;;6169595;23;20267;-87
2022/02/27 11:04:39;;;;;;;5.85;4.65;;;8.90;22.90;;;;;;6159816;23;20203;-88
2022/02/27 11:07:06;;;;;;;6.43;4.43;;;8.70;24.10;;;;;;6157147;23;20183;-87
2022/02/27 11:09:36;;;;;;;7.90;4.80;;;6.80;24.40;;;;;;6113340;23;20207;-85
2022/02/27 11:12:04;;;;;;;5.38;4.47;;;6.60;26.40;;;;;;6169714;23;20210;-87
2022/02/27 11:14:55;;;;;;;6.47;4.55;;;7.30;25.10;;;;;;6168402;23;20203;-87
2022/02/27 11:18:00;;;;;;;6.88;4.75;;;8.20;23.80;;;;;;6170183;23;20187;-87
2022/02/27 11:20:28;;;;;;;5.43;4.18;;;7.60;23.20;;;;;;6170339;23;20215;-86
2022/02/27 11:22:57;;;;;;;7.97;4.90;;;6.80;24.90;;;;;;6143487;23;20292;-85
2022/02/27 11:25:26;;;;;;;5.88;4.60;;;6.80;26.30;;;;;;6164184;23;20214;-85
2022/02/27 11:27:57;;;;;;;5.97;4.77;;;6.60;26.90;;;;;;6164432;23;20231;-87
2022/02/27 11:30:31;;;;;;;6.27;4.70;;;6.70;27.10;;;;;;6136546;23;20581;-85
2022/02/27 11:33:01;;;;;;;5.83;4.27;;;6.70;27.10;;;;;;6141307;23;20210;-87
2022/02/27 11:35:40;;;;;;;5.90;4.70;;;6.30;27.90;;;;;;6165109;23;20575;-87
2022/02/27 11:41:19;;;;;;;5.33;4.27;;;5.80;28.00;;;;;;6165579;23;20570;-87
2022/02/27 11:43:50;;;;;;;6.20;4.33;;;6.00;27.70;;;;;;6167617;23;20207;-87
2022/02/27 11:46:43;;;;;;;8.03;4.60;;;6.40;27.80;;;;;;6166234;23;20588;-85
2022/02/27 11:49:18;;;;;;;6.73;4.50;;;6.80;25.30;;;;;;6162550;23;20207;-87
2022/02/27 11:52:09;;;;;;;7.27;4.50;;;6.70;25.20;;;;;;6168979;23;20163;-87
2022/02/27 11:54:46;;;;;;;5.60;4.67;;;6.00;27.10;;;;;;6162518;23;20206;-87
2022/02/27 11:57:17;;;;;;;7.77;5.33;;;6.20;27.30;;;;;;6115388;23;20195;-85
2022/02/27 12:00:09;;;;;;;7.60;4.93;;;6.20;27.30;;;;;;6162308;23;20207;-85
2022/02/27 12:02:44;;;;;;;6.17;5.00;;;6.50;27.50;;;;;;6166090;23;20168;-85
2022/02/27 12:05:44;;;;;;;8.83;5.10;;;6.60;27.50;;;;;;6167122;23;20202;-85
2022/02/27 12:08:54;;;;;;;5.63;4.47;;;6.50;28.10;;;;;;6169867;23;20655;-84
2022/02/27 12:11:55;;;;;;;5.60;4.40;;;6.10;25.40;;;;;;6175925;23;20592;-86
2022/02/27 12:14:23;;;;;;;6.87;4.40;;;5.90;24.80;;;;;;6170023;23;20209;-86
2022/02/27 12:16:51;;;;;;;5.57;4.77;;;6.10;24.90;;;;;;6170448;23;20524;-86
2022/02/27 12:19:23;;;;;;;6.53;5.00;;;5.90;25.30;;;;;;6168700;23;20221;-85
2022/02/27 12:25:46;;;;;;;6.40;4.70;;;6.50;25.80;;;;;;6166811;23;20212;-85
2022/02/27 12:28:52;;;;;;;8.47;5.10;;;6.10;25.00;;;;;;6161637;23;20178;-86
2022/02/27 12:31:20;;;;;;;6.17;4.40;;;6.10;25.00;;;;;;6162705;23;20206;-87
2022/02/27 12:33:49;;;;;;;5.73;4.97;;;6.30;25.30;;;;;;6165650;23;20231;-85
2022/02/27 12:36:22;;;;;;;5.77;4.90;;;6.50;24.80;;;;;;6169189;23;20207;-87
2022/02/27 12:38:52;;;;;;;7.00;4.63;;;6.10;26.20;;;;;;6143507;23;20234;-85
2022/02/27 12:41:29;;;;;;;6.67;4.63;;;5.80;24.90;;;;;;6164506;23;20241;-87
2022/02/27 12:43:57;;;;;;;7.23;4.93;;;5.70;25.70;;;;;;6162797;23;20222;-89
2022/02/27 12:46:25;;;;;;;7.37;5.20;;;5.70;25.20;;;;;;6162760;23;20258;-87
2022/02/27 12:52:01;;;;;;;5.97;4.87;;;6.00;25.00;;;;;;6162398;23;20207;-87
2022/02/27 12:54:34;;;;;;;7.57;5.40;;;6.00;27.00;;;;;;6162426;23;20202;-87
2022/02/27 12:57:05;;;;;;;7.17;5.10;;;6.10;25.60;;;;;;6163476;23;20206;-88
2022/02/27 12:59:37;;;;;;;7.20;5.10;;;6.20;25.10;;;;;;6163595;23;20171;-88
2022/02/27 13:02:05;;;;;;;7.57;5.50;;;6.30;26.10;;;;;;6167025;23;20244;-85
2022/02/27 13:04:35;;;;;;;8.40;6.17;;;6.50;25.90;;;;;;6165468;23;20254;-86
2022/02/27 13:07:06;;;;;;;8.20;6.07;;;6.60;25.80;;;;;;6165794;23;20212;-85
2022/02/27 13:09:48;;;;;;;7.63;5.70;;;6.50;25.60;;;;;;6164276;23;20210;-88
2022/02/27 13:12:17;;;;;;;11.03;6.50;;;6.40;25.80;;;;;;6139823;23;20179;-82
2022/02/27 13:18:09;;;;;;;8.57;6.40;;;6.50;27.60;;;;;;6165986;23;20554;-85
2022/02/27 13:20:36;;;;;;;8.73;6.50;;;6.40;28.20;;;;;;6165287;23;20203;-85
2022/02/27 13:23:03;;;;;;;7.00;6.00;;;6.40;28.30;;;;;;6166548;23;20171;-86
2022/02/27 13:25:34;;;;;;;9.07;6.20;;;6.30;27.90;;;;;;6138638;23;20287;-87
2022/02/27 13:28:02;;;;;;;9.83;6.37;;;6.20;28.00;;;;;;6166089;23;20234;-87
2022/02/27 13:30:29;;;;;;;8.20;6.13;;;6.10;28.00;;;;;;6139100;23;20179;-88
2022/02/27 13:33:00;;;;;;;8.77;5.70;;;6.10;27.40;;;;;;6163867;23;20164;-87
2022/02/27 13:35:38;;;;;;;7.13;5.67;;;6.20;27.20;;;;;;6162456;23;20506;-89
2022/02/27 13:38:09;;;;;;;7.33;5.93;;;6.20;27.40;;;;;;6164200;23;20183;-86
2022/02/27 13:40:39;;;;;;;9.90;6.20;;;6.20;27.60;;;;;;6137585;23;20270;-89
2022/02/27 13:43:16;;;;;;;7.53;6.37;;;6.10;28.20;;;;;;6161216;23;20202;-90
2022/02/27 13:45:45;;;;;;;7.37;6.20;;;5.80;28.20;;;;;;6161814;23;20186;-89
2022/02/27 13:48:14;;;;;;;9.50;6.20;;;5.70;28.30;;;;;;6134833;23;20256;-88
2022/02/27 13:50:45;;;;;;;7.87;6.23;;;5.70;28.00;;;;;;6161657;23;20183;-89
2022/02/27 13:56:35;;;;;;;8.07;5.50;;;5.70;27.70;;;;;;6162722;23;20175;-87
2022/02/27 13:59:47;;;;;;;7.87;5.97;;;5.80;27.00;;;;;;6163000;23;20238;-88
2022/02/27 14:02:33;;;;;;;9.70;5.77;;;5.80;27.30;;;;;;6111568;23;20175;-87
2022/02/27 14:05:11;;;;;;;7.77;5.77;;;5.90;26.10;;;;;;6162089;23;20199;-87
2022/02/27 14:08:21;;;;;;;7.57;5.00;;;6.00;25.80;;;;;;6168128;23;20207;-87
2022/02/27 14:11:11;;;;;;;7.37;5.20;;;5.90;26.40;;;;;;6170817;23;20485;-85
2022/02/27 14:13:43;;;;;;;7.90;5.90;;;5.70;27.70;;;;;;6146695;23;20244;-84
2022/02/27 14:16:12;;;;;;;8.87;5.87;;;5.70;27.00;;;;;;6168470;23;20545;-89
2022/02/27 14:18:40;;;;;;;7.83;6.10;;;5.70;27.70;;;;;;6163838;23;20283;-86
2022/02/27 14:24:32;;;;;;;8.50;5.63;;;5.90;27.40;;;;;;6164446;23;20258;-87
2022/02/27 14:27:28;;;;;;;10.57;6.23;;;6.00;28.20;;;;;;6167848;23;20167;-86
2022/02/27 14:29:56;;;;;;;11.03;6.33;;;5.90;28.00;;;;;;6164015;23;20187;-88
2022/02/27 14:33:16;;;;;;;8.67;6.13;;;5.80;28.40;;;;;;6161745;23;20555;-88
2022/02/27 14:35:44;;;;;;;9.63;6.37;;;5.80;28.30;;;;;;6163358;23;20222;-86
2022/02/27 14:38:23;;;;;;;7.30;5.77;;;5.70;29.00;;;;;;6163701;23;20222;-84
2022/02/27 14:40:50;;;;;;;8.73;6.00;;;5.70;27.90;;;;;;6167816;23;20235;-84
2022/02/27 14:43:18;;;;;;;9.20;6.30;;;5.50;28.60;;;;;;6165024;23;20233;-85
2022/02/27 14:45:46;;;;;;;9.17;6.00;;;5.50;28.30;;;;;;6136862;23;20175;-85
2022/02/27 14:53:24;;;;;;;8.63;5.73;;;5.60;27.70;;;;;;6203381;23;20218;-86
2022/02/27 14:59:13;;;;;;;6.90;5.63;;;5.60;27.70;;;;;;6199696;23;20268;-85
2022/02/27 15:01:49;;;;;;;8.20;5.87;;;5.60;27.50;;;;;;6199806;23;20215;-88
2022/02/27 15:04:17;;;;;;;9.33;6.10;;;5.70;28.00;;;;;;6196777;23;20206;-85
2022/02/27 15:06:45;;;;;;;10.27;6.47;;;5.70;28.10;;;;;;6171260;23;20206;-87
2022/02/27 15:09:19;;;;;;;8.17;5.87;;;5.70;28.50;;;;;;6196462;23;20253;-86
2022/02/27 15:11:49;;;;;;;10.83;6.80;;;5.70;28.90;;;;;;6198036;23;20173;-86
2022/02/27 15:14:16;;;;;;;9.03;6.43;;;5.60;29.20;;;;;;6171519;23;20199;-87
2022/02/27 15:16:45;;;;;;;9.40;6.63;;;5.50;29.30;;;;;;6172577;23;20202;-86
2022/02/27 15:19:14;;;;;;;9.63;6.53;;;5.50;29.00;;;;;;6198705;23;20207;-86
2022/02/27 15:21:42;;;;;;;8.23;5.87;;;5.40;28.50;;;;;;6172774;23;20174;-88
2022/02/27 15:24:10;;;;;;;9.50;6.40;;;5.40;29.00;;;;;;6199219;23;20693;-90
2022/02/27 15:26:37;;;;;;;8.67;6.63;;;5.20;29.60;;;;;;6199083;23;20202;-87
2022/02/27 15:29:06;;;;;;;10.00;6.80;;;5.10;30.00;;;;;;6172417;23;20225;-87
2022/02/27 15:31:34;;;;;;;8.67;6.17;;;5.10;30.10;;;;;;6199777;23;20637;-86
2022/02/27 15:34:01;;;;;;;9.33;6.70;;;5.00;30.10;;;;;;6174168;23;20225;-86
2022/02/27 15:36:30;;;;;;;9.37;6.53;;;5.00;29.70;;;;;;6202230;23;20214;-87
2022/02/27 15:38:57;;;;;;;7.50;5.77;;;4.90;30.10;;;;;;6173657;23;20217;-86
2022/02/27 15:41:31;;;;;;;8.73;6.20;;;4.80;30.10;;;;;;6200949;23;20162;-88
2022/02/27 15:43:58;;;;;;;8.43;6.30;;;4.80;29.80;;;;;;6177277;23;20222;-88
2022/02/27 15:46:26;;;;;;;8.77;5.90;;;4.80;29.40;;;;;;6181926;23;20197;-86
2022/02/27 15:59:16;;;;;;;10.07;5.70;;;4.70;28.50;;;;;;6197522;23;20202;-87
2022/02/27 16:01:46;;;;;;;8.07;6.00;;;4.70;28.80;;;;;;6169066;23;20237;-90
2022/02/27 16:04:14;;;;;;;9.07;5.77;;;4.60;29.10;;;;;;6142271;23;20210;-86
2022/02/27 16:06:49;;;;;;;8.50;5.90;;;4.60;29.30;;;;;;6191748;23;20703;-86
2022/02/27 16:09:17;;;;;;;8.27;6.17;;;4.60;29.60;;;;;;6191073;23;20217;-88
2022/02/27 16:11:46;;;;;;;7.77;5.77;;;4.50;30.30;;;;;;6194254;23;20194;-88
2022/02/27 16:14:13;;;;;;;8.13;6.10;;;4.50;29.40;;;;;;6193145;23;20163;-88
2022/02/27 16:16:42;;;;;;;8.20;5.90;;;4.50;30.00;;;;;;6166696;23;20179;-89
2022/02/27 16:19:09;;;;;;;9.17;6.30;;;4.50;29.60;;;;;;6193453;23;20222;-88
2022/02/27 16:21:39;;;;;;;8.63;6.23;;;4.40;29.90;;;;;;6193194;23;20538;-90
2022/02/27 16:24:07;;;;;;;10.43;5.93;;;4.50;29.60;;;;;;6192916;23;20175;-88
2022/02/27 16:26:35;;;;;;;8.40;5.63;;;4.40;29.80;;;;;;6199767;23;20173;-89
2022/02/27 16:29:02;;;;;;;9.27;6.10;;;4.40;29.90;;;;;;6198599;23;20253;-89
2022/02/27 16:31:29;;;;;;;8.03;5.90;;;4.40;29.60;;;;;;6201213;23;20253;-87
2022/02/27 16:33:57;;;;;;;8.83;5.73;;;4.30;29.70;;;;;;6198185;23;20214;-88
2022/02/27 16:36:25;;;;;;;9.80;6.40;;;4.20;30.10;;;;;;6196591;23;20231;-90
2022/02/27 16:38:52;;;;;;;8.90;5.87;;;4.20;29.80;;;;;;6193505;23;20226;-90
2022/02/27 16:41:19;;;;;;;9.40;5.60;;;4.20;30.10;;;;;;6192719;23;20265;-88
2022/02/27 16:43:47;;;;;;;8.03;6.00;;;4.20;29.60;;;;;;6192721;23;20205;-89
2022/02/27 16:46:16;;;;;;;9.10;4.93;;;4.10;29.50;;;;;;6192910;23;20203;-88
2022/02/27 16:48:43;;;;;;;9.13;5.67;;;4.10;29.40;;;;;;6190893;23;20202;-88
2022/02/27 16:51:12;;;;;;;10.13;5.83;;;4.00;29.50;;;;;;6192722;23;20198;-87
2022/02/27 16:53:40;;;;;;;7.87;5.80;;;3.90;30.00;;;;;;6190575;23;20213;-88
2022/02/27 16:56:07;;;;;;;7.60;5.57;;;3.80;30.40;;;;;;6192399;23;20302;-88
2022/02/27 16:58:34;;;;;;;8.33;5.67;;;3.80;30.50;;;;;;6167195;23;20195;-88
2022/02/27 17:01:01;;;;;;;8.53;6.00;;;3.80;30.80;;;;;;6195597;23;20206;-88
2022/02/27 17:03:28;;;;;;;8.50;5.97;;;3.70;31.10;;;;;;6194816;23;20170;-87
2022/02/27 17:05:55;;;;;;;9.13;5.77;;;3.70;31.10;;;;;;6194981;23;20210;-86
2022/02/27 17:08:24;;;;;;;8.80;5.77;;;3.70;30.90;;;;;;6194205;23;20273;-86
2022/02/27 17:10:51;;;;;;;9.13;6.10;;;3.70;30.90;;;;;;6194277;23;20623;-89
2022/02/27 17:13:24;;;;;;;8.17;5.37;;;3.60;30.90;;;;;;6168454;23;20564;-89
2022/02/27 17:15:51;;;;;;;8.37;6.10;;;3.60;30.80;;;;;;6195315;23;20198;-91
2022/02/27 17:18:26;;;;;;;6.70;5.33;;;3.50;32.00;;;;;;6190783;23;20198;-87
2022/02/27 17:21:02;;;;;;;6.77;5.40;;;3.50;31.30;;;;;;6196104;23;20162;-88
2022/02/27 17:23:37;;;;;;;9.17;5.87;;;3.40;31.50;;;;;;6166372;23;20246;-87
2022/02/27 17:26:06;;;;;;;8.93;5.60;;;3.30;31.90;;;;;;6194649;23;20198;-86
2022/02/27 17:28:37;;;;;;;7.17;5.63;;;3.30;31.70;;;;;;6196000;23;20163;-89
2022/02/27 17:31:05;;;;;;;8.50;5.93;;;3.30;31.90;;;;;;6172544;23;20214;-89
2022/02/27 17:33:32;;;;;;;7.70;5.20;;;3.30;32.50;;;;;;6199959;23;20205;-88
2022/02/27 17:36:00;;;;;;;11.07;6.30;;;3.20;32.80;;;;;;6175367;23;20226;-89
2022/02/27 17:38:27;;;;;;;9.90;6.10;;;3.10;33.50;;;;;;6172333;23;20194;-89
2022/02/27 17:40:58;;;;;;;9.90;5.93;;;3.10;34.00;;;;;;6151492;23;20189;-89
2022/02/27 17:43:31;;;;;;;10.67;6.47;;;3.00;33.90;;;;;;6197460;23;20242;-88
2022/02/27 17:45:58;;;;;;;7.80;5.93;;;3.00;35.00;;;;;;6195800;23;20210;-88
2022/02/27 17:48:25;;;;;;;9.67;6.10;;;2.90;35.80;;;;;;6143861;23;20681;-87
2022/02/27 17:50:52;;;;;;;10.40;6.67;;;2.90;36.10;;;;;;6195026;23;20249;-88
2022/02/27 17:53:19;;;;;;;10.07;6.90;;;2.80;36.90;;;;;;6168484;23;20178;-87